Althea — 9HAQ7 — position and weather

sailwx.info

Track history (hours):
 
Tides and Currents Weather Stations Pressure Air Temp Water Temp Dewpoint Dewpoint Depression Visibility Wind Speed Wind Dir Waves Ship Positions

Althea

Last reported at 2016-Aug-29 08:33 UTC. Time now 2016-Aug-30 01:19 UTC.
Position S 28°34' W 045°41'.

Length 170 m; draft 9.7 m.

Type: Cargo ship. MMSI: 215047000.

Date/timePositionNaut miles runAvg speedWind from/ knotsBaromVisibWave heightAir tempDewpointWater temp
2016-Aug-29 08:33S 28°34' W 045°41'1211.9
2016-Aug-29 07:34S 28°42' W 045°51'15012.5
2016-Aug-28 19:34S 30°23' W 047°59'1413.2
2016-Aug-28 18:30S 30°34' W 048°10'7412.4
2016-Aug-28 12:32S 31°20' W 049°17'1212.2
2016-Aug-28 11:33S 31°28' W 049°27'1311.7
2016-Aug-28 10:28S 31°37' W 049°38'1111.9
2016-Aug-28 09:33S 31°45' W 049°47'1211.6
2016-Aug-28 08:33S 31°53' W 049°57'41210.8
2016-Aug-26 18:25S 34°52' W 057°22'1011.7
2016-Aug-26 17:32S 34°46' W 057°33'1111.0
2016-Aug-26 16:32S 34°44' W 057°46'3 2.7
2016-Aug-26 15:31S 34°44' W 057°49'0 0.0
2016-Aug-26 14:31S 34°44' W 057°49'0 0.0
2016-Aug-26 13:31S 34°44' W 057°49'0 0.0
2016-Aug-26 12:28S 34°44' W 057°49'0 0.1
2016-Aug-26 11:31S 34°44' W 057°49'0 0.0
2016-Aug-26 10:31S 34°44' W 057°49'0 0.0
2016-Aug-26 09:28S 34°44' W 057°49'0 0.0
2016-Aug-26 08:25S 34°44' W 057°49'0 0.0
2016-Aug-26 07:31S 34°44' W 057°49'0 0.0
2016-Aug-26 06:31S 34°44' W 057°49'0 0.0
2016-Aug-26 04:31S 34°44' W 057°49'0 0.1
2016-Aug-26 03:31S 34°44' W 057°49'0 0.1
2016-Aug-26 02:31S 34°44' W 057°49'0 0.0
2016-Aug-26 01:31S 34°44' W 057°49'0 0.0
2016-Aug-26 00:22S 34°44' W 057°49'0 0.0
2016-Aug-25 23:31S 34°44' W 057°49'0 0.1
2016-Aug-25 22:31S 34°44' W 057°49'0 0.1
2016-Aug-25 21:23S 34°44' W 057°49'5 6.0
2016-Aug-25 20:33S 34°42' W 057°55'1212.0
2016-Aug-25 19:33S 34°38' W 058°08'10 9.7
2016-Aug-25 18:33S 34°33' W 058°18'9 8.6
2016-Aug-25 17:33S 34°26' W 058°25'42 7.7
2016-Aug-25 12:08S 34°02' W 059°06'  
2016-Aug-23 03:33S 34°22' W 058°28'1010.3
2016-Aug-23 02:32S 34°31' W 058°21'10 9.7
2016-Aug-23 01:33S 34°37' W 058°13'1010.0
2016-Aug-23 00:33S 34°40' W 058°01'1010.2
2016-Aug-22 23:33S 34°44' W 057°50'5 4.9
2016-Aug-22 22:33S 34°44' W 057°44'  
Track history (hours):
 
Tides and Currents Weather Stations Pressure Air Temp Water Temp Dewpoint Dewpoint Depression Visibility Wind Speed Wind Dir Waves Ship Positions

Althea

Last reported at 2016-Aug-29 08:33 UTC. Time now 2016-Aug-30 01:19 UTC.
Position S 28°34' W 045°41'.

Length 170 m; draft 9.7 m.

Type: Cargo ship. MMSI: 215047000.

Date/timePositionNaut miles runAvg speedWind from/ knotsBaromVisibWave heightAir tempDewpointWater temp
2016-Aug-29 08:33S 28°34' W 045°41'1211.9
2016-Aug-29 07:34S 28°42' W 045°51'15012.5
2016-Aug-28 19:34S 30°23' W 047°59'1413.2
2016-Aug-28 18:30S 30°34' W 048°10'7412.4
2016-Aug-28 12:32S 31°20' W 049°17'1212.2
2016-Aug-28 11:33S 31°28' W 049°27'1311.7
2016-Aug-28 10:28S 31°37' W 049°38'1111.9
2016-Aug-28 09:33S 31°45' W 049°47'1211.6
2016-Aug-28 08:33S 31°53' W 049°57'41210.8
2016-Aug-26 18:25S 34°52' W 057°22'1011.7
2016-Aug-26 17:32S 34°46' W 057°33'1111.0
2016-Aug-26 16:32S 34°44' W 057°46'3 2.7
2016-Aug-26 15:31S 34°44' W 057°49'0 0.0
2016-Aug-26 14:31S 34°44' W 057°49'0 0.0
2016-Aug-26 13:31S 34°44' W 057°49'0 0.0
2016-Aug-26 12:28S 34°44' W 057°49'0 0.1
2016-Aug-26 11:31S 34°44' W 057°49'0 0.0
2016-Aug-26 10:31S 34°44' W 057°49'0 0.0
2016-Aug-26 09:28S 34°44' W 057°49'0 0.0
2016-Aug-26 08:25S 34°44' W 057°49'0 0.0
2016-Aug-26 07:31S 34°44' W 057°49'0 0.0
2016-Aug-26 06:31S 34°44' W 057°49'0 0.0
2016-Aug-26 04:31S 34°44' W 057°49'0 0.1
2016-Aug-26 03:31S 34°44' W 057°49'0 0.1
2016-Aug-26 02:31S 34°44' W 057°49'0 0.0
2016-Aug-26 01:31S 34°44' W 057°49'0 0.0
2016-Aug-26 00:22S 34°44' W 057°49'0 0.0
2016-Aug-25 23:31S 34°44' W 057°49'0 0.1
2016-Aug-25 22:31S 34°44' W 057°49'0 0.1
2016-Aug-25 21:23S 34°44' W 057°49'5 6.0
2016-Aug-25 20:33S 34°42' W 057°55'1212.0
2016-Aug-25 19:33S 34°38' W 058°08'10 9.7
2016-Aug-25 18:33S 34°33' W 058°18'9 8.6
2016-Aug-25 17:33S 34°26' W 058°25'42 7.7
2016-Aug-25 12:08S 34°02' W 059°06'  
2016-Aug-23 03:33S 34°22' W 058°28'1010.3
2016-Aug-23 02:32S 34°31' W 058°21'10 9.7
2016-Aug-23 01:33S 34°37' W 058°13'1010.0
2016-Aug-23 00:33S 34°40' W 058°01'1010.2
2016-Aug-22 23:33S 34°44' W 057°50'5 4.9
2016-Aug-22 22:33S 34°44' W 057°44'  

Dump ship's entire track history